Aviation Digital Data Service (ADDS)

Output produced by METARs form (0200 UTC 24 May 2019)
found at http://www.aviationweather.gov/metar/data/
 
METAR text: EPPO 240130Z 33003KT CAVOK 07/06 Q1016 R10/09//95
Conditions at: EPPO (POZNAN/LAWICA , PL) observed 0130 UTC 24 May 2019
Temperature: 7.0°C (45°F)
Dewpoint: 6.0°C (43°F) [RH = 93%]
Pressure (altimeter): 30.00 inches Hg (1016.0 mb)
Winds: from the NNW (330 degrees) at 3 MPH (3 knots; 1.5 m/s)
Visibility: 6 or more miles (10+ km)
Ceiling: ceiling and visibility are OK
Clouds: unknown
Weather: no significant weather observed at this time

Forecast for: EPPO (POZNAN/LAWICA , PL)
Text: TAF EPPO 232330Z 2400/2424 31004KT CAVOK
Forecast period: 0000 UTC 24 May 2019 to 0000 UTC 25 May 2019
Forecast type: FROM: standard forecast or significant change
Winds: from the NW (310 degrees) at 5 MPH (4 knots; 2.1 m/s)
Visibility: 6 or more miles 10+ km)
Ceiling: unknown
Clouds: missing
Weather: NSW  (no significant weather)